Time;durP1;ratioP1;P1;durP2;ratioP2;P2;SDS_P1;SDS_P2;PMS_P1;PMS_P2;Temp;Humidity;BMP_temperature;BMP_pressure;BME280_temperature;BME280_humidity;BME280_pressure;Samples;Min_cycle;Max_cycle;Signal;HPM_P1;HPM_P2
2022/08/25 00:02:18;;;;;;;;;;;22.50;70.90;;;21.92;65.28;96293.66;4892160;29;19899;-86
2022/08/25 00:04:48;;;;;;;;;;;22.50;70.80;;;21.91;65.05;96286.44;4891958;29;19922;-85
2022/08/25 00:07:16;;;;;;;;;;;22.50;70.80;;;21.92;64.72;96287.25;4922994;29;19906;-86
2022/08/25 00:09:45;;;;;;;;;;;22.50;70.80;;;21.89;65.28;96287.94;4891985;29;19898;-86
2022/08/25 00:12:14;;;;;;;;;;;22.50;70.80;;;21.91;65.32;96296.75;4923744;29;19905;-85
2022/08/25 00:14:42;;;;;;;;;;;22.50;70.80;;;21.91;64.95;96296.75;4927139;29;19899;-85
2022/08/25 00:17:11;;;;;;;;;;;22.50;70.70;;;21.91;64.97;96293.97;4891422;29;19906;-85
2022/08/25 00:19:40;;;;;;;;;;;22.50;70.70;;;21.90;64.94;96289.56;4891938;29;19898;-85
2022/08/25 00:22:10;;;;;;;;;;;22.50;70.70;;;21.89;64.89;96283.19;4923612;29;19925;-85
2022/08/25 00:24:38;;;;;;;;;;;22.50;70.80;;;21.89;65.10;96282.34;4891663;29;19898;-85
2022/08/25 00:27:07;;;;;;;;;;;22.50;70.70;;;21.89;64.94;96274.81;4891316;29;19899;-85
2022/08/25 00:29:37;;;;;;;;;;;22.50;70.70;;;21.88;64.93;96277.97;4891783;29;19899;-86
2022/08/25 00:32:06;;;;;;;;;;;22.50;70.60;;;21.89;64.82;96287.94;4891821;29;20029;-86
2022/08/25 00:34:36;;;;;;;;;;;22.50;70.60;;;21.88;65.00;96275.97;4926381;29;19940;-86
2022/08/25 00:37:08;;;;;;;;;;;22.50;70.70;;;21.88;64.97;96280.75;4929419;29;20165;-86
2022/08/25 00:39:38;;;;;;;;;;;22.50;70.60;;;21.87;65.18;96285.50;4891913;29;20007;-85
2022/08/25 00:42:08;;;;;;;;;;;22.50;70.60;;;21.87;64.84;96285.50;4923478;29;20152;-86
2022/08/25 00:44:37;;;;;;;;;;;22.50;70.50;;;21.87;65.01;96291.06;4891540;29;19943;-85
2022/08/25 00:47:05;;;;;;;;;;;22.50;70.50;;;21.86;65.09;96289.44;4891159;29;20206;-86
2022/08/25 00:49:36;;;;;;;;;;;22.40;70.40;;;21.86;64.78;96283.84;4891749;29;19978;-86
2022/08/25 00:52:07;;;;;;;;;;;22.40;70.40;;;21.85;64.92;96276.66;4892437;29;19915;-85
2022/08/25 00:54:40;;;;;;;;;;;22.40;70.40;;;21.86;64.84;96272.72;4892665;29;20063;-86
2022/08/25 00:57:11;;;;;;;;;;;22.40;70.30;;;21.86;65.11;96271.91;4892167;29;19913;-86
2022/08/25 00:59:40;;;;;;;;;;;22.40;70.40;;;21.84;64.73;96275.03;4892499;29;19905;-85
2022/08/25 01:02:08;;;;;;;;;;;22.40;70.30;;;21.85;64.61;96275.84;4892787;29;19898;-86
2022/08/25 01:04:37;;;;;;;;;;;22.40;70.20;;;21.84;64.62;96269.44;4892365;29;19898;-85
2022/08/25 01:07:06;;;;;;;;;;;22.40;70.20;;;21.84;64.71;96269.44;4892124;29;20077;-86
2022/08/25 01:09:35;;;;;;;;;;;22.40;70.30;;;21.83;64.44;96256.66;4925401;29;19898;-86
2022/08/25 01:12:05;;;;;;;;;;;22.40;70.20;;;21.83;64.85;96258.66;4924298;29;20136;-85
2022/08/25 01:14:34;;;;;;;;;;;22.40;70.20;;;21.82;64.58;96262.59;4925464;29;20142;-85
2022/08/25 01:17:02;;;;;;;;;;;22.40;70.20;;;21.82;64.47;96262.59;4892022;29;19898;-86
2022/08/25 01:19:32;;;;;;;;;;;22.40;70.20;;;21.82;64.65;96259.81;4931775;28;20071;-86
2022/08/25 01:22:02;;;;;;;;;;;22.40;70.20;;;21.83;64.64;96261.44;4892849;29;20287;-86
2022/08/25 01:24:38;;;;;;;;;;;22.40;70.10;;;21.81;64.71;96258.19;4892457;29;20109;-86
2022/08/25 01:27:07;;;;;;;;;;;22.40;70.10;;;21.81;64.67;96255.41;4891860;29;20138;-86
2022/08/25 01:29:36;;;;;;;;;;;22.40;70.10;;;21.80;64.54;96251.81;4931658;28;19898;-86
2022/08/25 01:32:07;;;;;;;;;;;22.40;70.10;;;21.81;64.47;96249.81;4892670;29;20440;-85
2022/08/25 01:34:39;;;;;;;;;;;22.40;70.10;;;21.81;64.38;96252.59;4892448;29;19898;-87
2022/08/25 01:37:10;;;;;;;;;;;22.40;70.20;;;21.80;64.46;96250.97;4892029;29;19966;-86
2022/08/25 01:39:39;;;;;;;;;;;22.40;70.10;;;21.80;64.47;96254.59;4924098;29;20111;-86
2022/08/25 01:42:23;;;;;;;;;;;22.40;70.10;;;21.80;64.34;96250.97;4892803;29;20216;-86
2022/08/25 01:44:52;;;;;;;;;;;22.40;70.10;;;21.79;64.68;96254.91;4923986;29;19898;-85
2022/08/25 01:47:20;;;;;;;;;;;22.40;70.00;;;21.80;64.63;96253.75;4924758;29;19899;-86
2022/08/25 01:49:49;;;;;;;;;;;22.40;70.00;;;21.77;64.63;96250.50;4924169;29;19898;-86
2022/08/25 01:52:24;;;;;;;;;;;22.40;70.10;;;21.77;64.54;96258.06;4924182;29;19899;-86
2022/08/25 01:54:53;;;;;;;;;;;22.40;70.00;;;21.76;64.59;96254.44;4892545;29;19898;-87
2022/08/25 01:57:22;;;;;;;;;;;22.40;70.10;;;21.77;64.70;96253.28;4930031;29;19899;-86
2022/08/25 01:59:50;;;;;;;;;;;22.40;70.00;;;21.77;64.38;96258.06;4892331;29;19898;-85
2022/08/25 02:02:19;;;;;;;;;;;22.30;70.00;;;21.77;64.60;96258.06;4930585;28;19899;-86
2022/08/25 02:04:48;;;;;;;;;;;22.30;70.10;;;21.78;64.75;96259.69;4892441;29;20436;-85
2022/08/25 02:07:19;;;;;;;;;;;22.40;70.10;;;21.75;64.42;96252.00;4891956;29;20052;-85
2022/08/25 02:09:47;;;;;;;;;;;22.30;70.10;;;21.75;64.31;96249.22;4892475;29;20009;-86
2022/08/25 02:12:16;;;;;;;;;;;22.40;70.10;;;21.75;64.72;96250.03;4892564;29;19929;-85
2022/08/25 02:14:45;;;;;;;;;;;22.30;70.10;;;21.75;64.51;96247.22;4892620;29;20043;-86
2022/08/25 02:17:13;;;;;;;;;;;22.40;70.20;;;21.76;64.67;96250.84;4892052;29;19898;-86
2022/08/25 02:19:42;;;;;;;;;;;22.40;70.20;;;21.75;64.49;96249.22;4892261;29;20094;-85
2022/08/25 02:22:11;;;;;;;;;;;22.30;70.20;;;21.73;64.71;96246.78;4892540;29;19962;-85
2022/08/25 02:24:41;;;;;;;;;;;22.30;70.30;;;21.74;64.48;96248.41;4926553;28;19939;-85
2022/08/25 02:27:09;;;;;;;;;;;22.30;70.20;;;21.73;64.66;96257.94;4891641;29;19899;-86
2022/08/25 02:29:38;;;;;;;;;;;22.30;70.20;;;21.72;64.85;96242.38;4892075;29;19898;-85
2022/08/25 02:32:07;;;;;;;;;;;22.30;70.30;;;21.73;64.67;96246.78;4892556;29;20251;-86
2022/08/25 02:34:36;;;;;;;;;;;22.30;70.30;;;21.74;64.50;96256.78;4892250;29;20165;-85
2022/08/25 02:37:04;;;;;;;;;;;22.30;70.30;;;21.73;64.77;96255.16;4891931;29;20140;-85
2022/08/25 02:39:33;;;;;;;;;;;22.30;70.20;;;21.73;64.87;96251.53;4930454;29;20198;-86
2022/08/25 02:42:03;;;;;;;;;;;22.30;70.30;;;21.72;64.63;96261.88;4891577;29;19921;-86
2022/08/25 02:44:32;;;;;;;;;;;22.30;70.30;;;21.72;64.50;96259.09;4891405;29;20202;-85
2022/08/25 02:47:00;;;;;;;;;;;22.30;70.20;;;21.72;64.56;96264.66;4923342;29;19912;-86
2022/08/25 02:49:30;;;;;;;;;;;22.30;70.30;;;21.72;64.50;96263.81;4892286;29;20050;-85
2022/08/25 02:52:00;;;;;;;;;;;22.30;70.30;;;21.71;64.53;96265.81;4930372;29;19898;-85
2022/08/25 02:54:28;;;;;;;;;;;22.30;70.30;;;21.71;64.88;96260.25;4923942;29;20070;-86
2022/08/25 02:56:57;;;;;;;;;;;22.30;71.10;;;21.69;64.93;96256.16;4891929;29;19906;-85
2022/08/25 02:59:27;;;;;;;;;;;22.30;70.30;;;21.69;64.69;96254.19;4930437;29;20089;-85
2022/08/25 03:01:56;;;;;;;;;;;22.30;70.20;;;21.69;64.90;96256.97;4923864;29;19904;-85
2022/08/25 03:04:24;;;;;;;;;;;22.30;70.30;;;21.69;64.53;96258.94;4892304;29;19905;-86
2022/08/25 03:06:53;;;;;;;;;;;22.30;70.30;;;21.69;64.79;96254.19;4891852;29;19898;-85
2022/08/25 03:09:21;;;;;;;;;;;22.30;70.30;;;21.69;64.52;96258.94;4930102;29;19906;-85
2022/08/25 03:11:50;;;;;;;;;;;22.30;70.30;;;21.67;64.70;96250.94;4923846;29;20222;-85
2022/08/25 03:14:19;;;;;;;;;;;22.30;70.30;;;21.68;64.41;96262.91;4891967;29;19905;-85
2022/08/25 03:16:49;;;;;;;;;;;22.30;70.40;;;21.67;64.85;96256.50;4891991;29;20130;-86
2022/08/25 03:19:17;;;;;;;;;;;22.30;70.40;;;21.68;64.98;96262.91;4891998;29;20020;-84
2022/08/25 03:21:46;;;;;;;;;;;22.30;70.40;;;21.68;64.58;96262.91;4892241;29;20147;-85
2022/08/25 03:24:14;;;;;;;;;;;22.30;70.30;;;21.67;64.54;96264.84;4927656;29;20217;-85
2022/08/25 03:26:54;;;;;;;;;;;22.20;70.20;;;21.67;64.79;96270.44;4892104;29;20053;-85
2022/08/25 03:29:23;;;;;;;;;;;22.30;70.40;;;21.67;64.65;96269.63;4892021;29;20110;-85
2022/08/25 03:31:54;;;;;;;;;;;22.30;70.40;;;21.66;64.62;96271.59;4892078;29;19944;-85
2022/08/25 03:34:23;;;;;;;;;;;22.20;70.30;;;21.66;64.55;96268.78;4923714;29;19898;-85
2022/08/25 03:36:52;;;;;;;;;;;22.30;70.40;;;21.65;64.57;96258.81;4891815;29;19920;-85
2022/08/25 03:39:22;;;;;;;;;;;22.30;70.40;;;21.66;64.66;96262.44;4891991;29;19898;-85
2022/08/25 03:41:50;;;;;;;;;;;22.20;70.30;;;21.66;64.67;96271.59;4891958;29;19898;-85
2022/08/25 03:44:19;;;;;;;;;;;22.20;70.30;;;21.65;64.92;96278.31;4923530;29;19904;-85
2022/08/25 03:46:49;;;;;;;;;;;22.20;70.30;;;21.64;64.86;96282.25;4923270;29;19939;-85
2022/08/25 03:49:22;;;;;;;;;;;22.20;70.40;;;21.65;64.74;96281.09;4930884;29;19950;-85
2022/08/25 03:51:53;;;;;;;;;;;22.20;70.30;;;21.65;64.83;96280.28;4891812;29;20119;-85
2022/08/25 03:54:23;;;;;;;;;;;22.20;70.30;;;21.64;64.88;96279.47;4892040;29;20194;-85
2022/08/25 03:56:52;;;;;;;;;;;22.20;70.30;;;21.63;64.77;96275.03;4929660;29;20048;-85
2022/08/25 03:59:21;;;;;;;;;;;22.20;70.30;;;21.64;64.93;96282.25;4891904;29;20031;-85
2022/08/25 04:01:49;;;;;;;;;;;22.20;70.30;;;21.64;64.72;96293.38;4891987;29;19899;-85
2022/08/25 04:04:20;;;;;;;;;;;22.20;70.30;;;21.64;64.82;96287.81;4891999;29;19898;-85
2022/08/25 04:06:48;;;;;;;;;;;22.20;70.30;;;21.64;64.69;96293.38;4891793;29;19990;-85
2022/08/25 04:09:17;;;;;;;;;;;22.20;70.30;;;21.64;64.79;96287.03;4924454;29;19913;-85
2022/08/25 04:11:45;;;;;;;;;;;22.20;70.40;;;21.64;64.81;96293.38;4891844;29;20386;-85
2022/08/25 04:14:14;;;;;;;;;;;22.20;70.40;;;21.64;64.88;96287.81;4891730;29;20216;-85
2022/08/25 04:16:43;;;;;;;;;;;22.20;70.30;;;21.62;64.99;96290.16;4929902;29;19956;-85
2022/08/25 04:19:11;;;;;;;;;;;22.20;70.40;;;21.63;64.68;96293.75;4891457;29;19921;-85
2022/08/25 04:21:41;;;;;;;;;;;22.20;70.40;;;21.63;65.01;96290.97;4892015;29;19899;-86
2022/08/25 04:24:11;;;;;;;;;;;22.20;70.40;;;21.64;64.81;96287.81;4891792;29;19898;-86
2022/08/25 04:26:41;;;;;;;;;;;22.20;70.40;;;21.63;64.78;96291.75;4892288;29;20096;-86
2022/08/25 04:29:10;;;;;;;;;;;22.20;70.30;;;21.63;64.83;96297.34;4924058;29;20125;-86
2022/08/25 04:31:40;;;;;;;;;;;22.20;70.30;;;21.62;64.76;96290.16;4930983;29;19899;-86
2022/08/25 04:34:08;;;;;;;;;;;22.20;70.40;;;21.62;64.68;96295.72;4892727;29;19992;-86
2022/08/25 04:36:37;;;;;;;;;;;22.20;70.30;;;21.61;65.07;96294.09;4892797;29;20140;-86
2022/08/25 04:39:07;;;;;;;;;;;22.20;70.40;;;21.61;64.43;96294.91;4956118;28;20035;-86
2022/08/25 04:41:36;;;;;;;;;;;22.20;70.40;;;21.61;64.87;96294.09;4892796;29;20133;-86
2022/08/25 04:44:05;;;;;;;;;;;22.20;70.30;;;21.61;64.80;96294.91;4892584;29;19898;-86
2022/08/25 04:46:34;;;;;;;;;;;22.20;70.30;;;21.62;64.86;96298.50;4892703;29;20083;-86
2022/08/25 04:49:03;;;;;;;;;;;22.20;70.40;;;21.62;64.80;96295.72;4892076;29;19905;-86
2022/08/25 04:51:35;;;;;;;;;;;22.20;70.40;;;21.61;65.12;96288.53;4892667;29;20006;-86
2022/08/25 04:54:05;;;;;;;;;;;22.20;70.40;;;21.61;64.61;96291.31;4892619;29;20203;-86
2022/08/25 04:56:35;;;;;;;;;;;22.20;70.40;;;21.62;64.67;96290.16;4892678;29;19990;-86
2022/08/25 04:59:05;;;;;;;;;;;22.20;70.40;;;21.61;64.63;96291.31;4892200;29;20195;-86
2022/08/25 05:01:34;;;;;;;;;;;22.20;70.40;;;21.61;64.68;96297.69;4892714;29;20207;-86
2022/08/25 05:04:04;;;;;;;;;;;22.20;70.40;;;21.61;64.84;96299.66;4892673;29;20202;-86
2022/08/25 05:06:33;;;;;;;;;;;22.20;70.40;;;21.61;64.85;96299.66;4892724;29;20140;-86
2022/08/25 05:09:02;;;;;;;;;;;22.20;70.30;;;21.59;65.50;96297.22;4923823;29;19928;-86
2022/08/25 05:11:31;;;;;;;;;;;22.20;70.40;;;21.61;64.87;96303.25;4924312;29;19978;-85
2022/08/25 05:14:01;;;;;;;;;;;22.20;70.40;;;21.62;65.02;96306.88;4924417;29;19956;-86
2022/08/25 05:16:30;;;;;;;;;;;22.20;70.30;;;21.62;64.88;96304.09;4892583;29;19905;-86
2022/08/25 05:18:58;;;;;;;;;;;22.20;70.30;;;21.61;64.69;96303.25;4924862;29;19898;-86
2022/08/25 05:21:27;;;;;;;;;;;22.20;70.30;;;21.62;64.79;96306.88;4924220;29;19899;-86
2022/08/25 05:23:56;;;;;;;;;;;22.20;70.30;;;21.63;64.96;96297.34;4892268;29;20053;-86
2022/08/25 05:26:26;;;;;;;;;;;22.20;70.30;;;21.64;64.83;96298.97;4892838;29;20260;-86
2022/08/25 05:28:55;;;;;;;;;;;22.20;70.30;;;21.64;64.77;96304.53;4891898;29;20120;-86
2022/08/25 05:31:28;;;;;;;;;;;22.20;70.30;;;21.62;64.58;96306.88;4892682;29;19993;-86
2022/08/25 05:33:57;;;;;;;;;;;22.20;70.30;;;21.65;64.58;96300.59;4892553;29;19898;-85
2022/08/25 05:36:28;;;;;;;;;;;22.20;70.30;;;21.65;64.59;96295.03;4892410;29;19962;-85
2022/08/25 05:38:56;;;;;;;;;;;22.30;70.40;;;21.65;64.70;96286.66;4892128;29;20196;-85
2022/08/25 05:41:29;;;;;;;;;;;22.30;70.40;;;21.66;64.61;96290.28;4892609;29;19905;-86
2022/08/25 05:43:57;;;;;;;;;;;22.20;70.40;;;21.68;64.56;96293.56;4892472;29;19905;-86
2022/08/25 05:46:27;;;;;;;;;;;22.30;70.40;;;21.68;64.92;96294.34;4892631;29;19906;-85
2022/08/25 05:48:56;;;;;;;;;;;22.30;70.70;;;21.70;64.86;96294.84;4891868;29;20002;-85
2022/08/25 05:51:25;;;;;;;;;;;22.30;70.70;;;21.71;64.99;96296.47;4892750;29;20331;-85
2022/08/25 05:53:53;;;;;;;;;;;22.30;70.40;;;21.72;64.80;96295.31;4923973;29;20198;-85
2022/08/25 05:56:22;;;;;;;;;;;22.30;70.50;;;21.70;65.03;96286.47;4892580;29;20005;-85
2022/08/25 05:58:51;;;;;;;;;;;22.30;70.90;;;21.74;65.36;96289.38;4892001;29;20275;-86
2022/08/25 06:04:09;;;;;;;;;;;22.30;71.20;;;21.74;65.45;96298.56;4892352;29;20072;-86
2022/08/25 06:06:39;;;;;;;;;;;22.40;71.30;;;21.75;65.85;96300.19;4931690;29;20216;-86
2022/08/25 06:09:08;;;;;;;;;;;22.40;71.30;;;21.74;65.63;96293.00;4931030;28;20142;-86
2022/08/25 06:11:38;;;;;;;;;;;22.30;71.30;;;21.79;65.48;96299.50;4930476;29;19914;-86
2022/08/25 06:14:07;;;;;;;;;;;22.40;71.20;;;21.84;65.65;96293.72;4892420;29;20106;-85
2022/08/25 06:16:36;;;;;;;;;;;22.40;71.20;;;21.86;65.46;96281.06;4892488;29;20020;-86
2022/08/25 06:19:04;;;;;;;;;;;22.50;71.10;;;21.95;65.25;96289.34;4891920;29;20058;-86
2022/08/25 06:21:34;;;;;;;;;;;22.60;70.90;;;22.05;64.76;96288.13;4924060;29;20280;-86
2022/08/25 06:24:04;;;;;;;;;;;22.60;70.60;;;22.16;64.68;96291.28;4923802;29;19990;-85
2022/08/25 06:26:32;;;;;;;;;;;22.70;70.40;;;22.25;64.28;96292.00;4924154;29;19905;-86
2022/08/25 06:29:01;;;;;;;;;;;22.80;70.00;;;22.32;64.12;96289.47;4923526;29;20403;-85
2022/08/25 06:31:29;;;;;;;;;;;22.90;69.70;;;22.34;63.94;96287.16;4924306;29;19905;-86
2022/08/25 06:33:58;;;;;;;;;;;22.90;69.40;;;22.38;63.93;96282.50;4892213;29;19899;-86
2022/08/25 06:36:27;;;;;;;;;;;23.00;69.20;;;22.41;63.74;96277.38;4892417;29;20064;-87
2022/08/25 06:38:56;;;;;;;;;;;23.00;69.20;;;22.45;63.51;96276.41;4923507;29;19898;-86
2022/08/25 06:41:26;;;;;;;;;;;23.10;69.20;;;22.48;63.48;96270.09;4931653;28;19899;-86
2022/08/25 06:43:54;;;;;;;;;;;23.10;69.10;;;22.52;63.56;96273.03;4891992;29;20109;-86
2022/08/25 06:46:25;;;;;;;;;;;23.10;69.00;;;22.59;63.39;96270.47;4930446;29;19906;-86
2022/08/25 06:48:55;;;;;;;;;;;23.10;68.90;;;22.61;63.11;96279.31;4923079;29;20141;-86
2022/08/25 06:51:25;;;;;;;;;;;23.20;68.80;;;22.67;62.83;96277.91;4892290;29;19905;-86
2022/08/25 06:53:53;;;;;;;;;;;23.20;68.50;;;22.66;62.98;96279.06;4923811;29;19905;-86
2022/08/25 06:56:23;;;;;;;;;;;23.30;68.60;;;22.67;63.03;96277.91;4930438;29;19998;-86
2022/08/25 06:58:52;;;;;;;;;;;23.30;68.50;;;22.66;62.98;96276.28;4891740;29;19899;-86
2022/08/25 07:01:24;;;;;;;;;;;23.30;68.60;;;22.72;63.35;96278.84;4892510;29;20054;-86
2022/08/25 07:03:56;;;;;;;;;;;23.30;68.60;;;22.73;62.91;96274.91;4923842;29;20065;-86
2022/08/25 07:06:24;;;;;;;;;;;23.30;68.40;;;22.74;63.05;96277.31;4923923;29;20079;-85
2022/08/25 07:08:53;;;;;;;;;;;23.30;68.40;;;22.74;62.98;96277.31;4891881;29;20099;-85
2022/08/25 07:11:23;;;;;;;;;;;23.30;68.40;;;22.75;62.87;96267.00;4892213;29;19937;-85
2022/08/25 07:13:52;;;;;;;;;;;23.30;68.40;;;22.77;62.76;96287.00;4929715;29;20059;-85
2022/08/25 07:16:20;;;;;;;;;;;23.30;68.40;;;22.78;62.83;96277.47;4892193;29;20138;-85
2022/08/25 07:18:55;;;;;;;;;;;23.30;68.40;;;22.78;62.93;96280.25;4891743;29;19898;-86
2022/08/25 07:21:23;;;;;;;;;;;23.40;68.40;;;22.80;62.86;96281.53;4892428;29;20219;-84
2022/08/25 07:23:52;;;;;;;;;;;23.40;68.40;;;22.84;62.36;96281.66;4892197;29;20088;-84
2022/08/25 07:26:23;;;;;;;;;;;23.40;68.30;;;22.84;62.75;96278.84;4892331;29;20038;-84
2022/08/25 07:28:52;;;;;;;;;;;23.40;68.30;;;22.86;62.77;96284.06;4891578;29;19899;-84
2022/08/25 07:31:21;;;;;;;;;;;23.40;68.20;;;22.87;62.86;96283.75;4924903;29;19898;-84
2022/08/25 07:36:35;;;;;;;;;;;23.40;68.10;;;22.91;62.58;96281.06;4923887;29;19906;-85
2022/08/25 07:39:04;;;;;;;;;;;23.50;68.20;;;22.88;62.57;96273.38;4891688;29;19898;-86
2022/08/25 07:41:36;;;;;;;;;;;23.40;68.00;;;22.84;62.97;96284.44;4892172;29;19994;-85
2022/08/25 07:44:05;;;;;;;;;;;23.40;68.20;;;22.78;63.13;96274.69;4891806;29;20090;-86
2022/08/25 07:46:33;;;;;;;;;;;23.40;68.40;;;22.76;62.96;96274.22;4923742;29;19905;-86
2022/08/25 07:49:02;;;;;;;;;;;23.40;68.40;;;22.76;63.40;96274.22;4923202;29;20110;-86
2022/08/25 07:51:31;;;;;;;;;;;23.30;68.50;;;22.75;63.05;96278.16;4892075;29;19939;-85
2022/08/25 07:54:00;;;;;;;;;;;23.30;68.70;;;22.72;63.19;96278.84;4891909;29;19905;-85
2022/08/25 07:56:28;;;;;;;;;;;23.30;68.80;;;22.68;63.31;96276.75;4923846;29;20040;-85
2022/08/25 07:58:58;;;;;;;;;;;23.30;68.80;;;22.68;63.70;96281.53;4891271;29;19899;-86
2022/08/25 08:01:27;;;;;;;;;;;23.30;68.90;;;22.71;63.08;96277.22;4924454;29;19918;-86
2022/08/25 08:03:55;;;;;;;;;;;23.30;68.90;;;22.70;63.38;96276.41;4924362;29;19899;-85
2022/08/25 08:06:24;;;;;;;;;;;23.30;68.90;;;22.68;63.40;96275.94;4892895;29;19905;-85
2022/08/25 08:08:55;;;;;;;;;;;23.30;68.90;;;22.66;63.65;96265.13;4892291;29;19918;-85
2022/08/25 08:11:25;;;;;;;;;;;23.30;68.90;;;22.66;63.49;96269.91;4930864;28;20105;-85
2022/08/25 08:13:55;;;;;;;;;;;23.30;69.00;;;22.68;63.39;96273.16;4924357;29;20047;-85
2022/08/25 08:27:56;;;;;;;;;;;23.30;68.80;;;22.79;63.35;96262.31;4303048;32;20136;-85
2022/08/25 08:30:24;;;;;;;;;;;23.40;68.90;;;22.76;63.08;96257.47;4273734;33;20133;-86
2022/08/25 08:32:53;;;;;;;;;;;23.30;68.90;;;22.72;63.13;96250.94;4303611;28;19902;-82
2022/08/25 08:35:25;;;;;;;;;;;23.30;68.90;;;22.70;63.88;96253.25;4249686;33;20376;-82
2022/08/25 08:37:53;;;;;;;;;;;23.30;68.90;;;22.70;63.59;96247.69;4273157;33;20119;-81
2022/08/25 08:40:27;;;;;;;;;;;23.30;69.10;;;22.67;63.26;96246.41;4273728;33;20271;-82
2022/08/25 08:43:05;;;;;;;;;;;23.30;69.10;;;22.65;63.44;96249.56;4273441;33;20119;-83
2022/08/25 08:45:35;;;;;;;;;;;23.20;69.00;;;22.63;63.81;96251.06;4273499;33;19909;-82
2022/08/25 08:48:42;;;;;;;;;;;23.20;69.00;;;22.58;63.47;96246.53;4248829;33;20038;-82
2022/08/25 08:51:18;;;;;;;;;;;23.20;69.10;;;22.57;63.50;96244.88;4251109;33;20213;-83
2022/08/25 08:53:53;;;;;;;;;;;23.20;69.20;;;22.59;63.60;96247.34;4249447;33;19901;-82
2022/08/25 08:56:24;;;;;;;;;;;23.20;69.30;;;22.60;63.83;96244.19;4273101;33;20012;-84
2022/08/25 08:59:03;;;;;;;;;;;23.20;69.20;;;22.59;63.50;96237.00;4273459;33;20305;-82
2022/08/25 09:01:40;;;;;;;;;;;23.20;69.30;;;22.63;63.53;96242.69;4273307;33;19978;-80
2022/08/25 09:04:11;;;;;;;;;;;23.20;69.30;;;22.64;63.74;96233.97;4249469;33;19908;-80
2022/08/25 09:06:42;;;;;;;;;;;23.20;69.20;;;22.67;63.72;96232.47;4248831;33;20144;-80
2022/08/25 09:09:13;;;;;;;;;;;23.30;69.20;;;22.69;63.50;96235.72;4249011;33;19902;-81
2022/08/25 09:11:54;;;;;;;;;;;23.30;69.20;;;22.71;63.35;96222.25;4273130;33;19910;-81
2022/08/25 09:14:50;;;;;;;;;;;23.30;69.20;;;22.74;63.56;96220.72;4249217;33;19906;-81
2022/08/25 09:17:38;;;;;;;;;;;23.30;69.10;;;22.75;63.19;96225.94;4248995;33;19902;-81
2022/08/25 09:20:18;;;;;;;;;;;23.30;69.00;;;22.76;63.23;96230.34;4274184;33;19901;-81
2022/08/25 09:22:54;;;;;;;;;;;23.40;68.90;;;22.76;63.23;96219.19;4249027;33;19967;-81
2022/08/25 09:25:29;;;;;;;;;;;23.40;68.80;;;22.76;63.23;96218.41;4249041;33;19906;-81
2022/08/25 09:28:07;;;;;;;;;;;23.40;68.80;;;22.76;63.14;96201.66;4266432;33;19909;-81
2022/08/25 09:30:45;;;;;;;;;;;23.40;68.70;;;22.77;63.22;96214.44;4263746;33;20117;-82
2022/08/25 09:33:17;;;;;;;;;;;23.40;68.80;;;22.77;63.14;96212.44;4263169;33;19916;-82
2022/08/25 09:35:46;;;;;;;;;;;23.40;68.80;;;22.76;63.35;96190.50;4239411;33;19901;-82
2022/08/25 09:38:14;;;;;;;;;;;23.40;68.70;;;22.76;63.38;96196.06;4262780;33;19924;-82
2022/08/25 09:40:46;;;;;;;;;;;23.40;68.70;;;22.77;63.28;96192.13;4264241;33;19924;-82
2022/08/25 09:43:21;;;;;;;;;;;23.40;68.70;;;22.75;63.22;96194.44;4264125;33;19964;-82
2022/08/25 09:45:59;;;;;;;;;;;23.40;68.70;;;22.75;63.07;96183.28;4264247;33;19901;-82
2022/08/25 09:49:26;;;;;;;;;;;23.40;68.80;;;22.73;63.11;96180.81;4262747;33;19942;-82
2022/08/25 09:51:55;;;;;;;;;;;23.40;68.70;;;22.74;63.39;96178.84;4210901;33;20122;-82
2022/08/25 09:54:26;;;;;;;;;;;23.40;68.80;;;22.72;63.65;96176.41;4211027;33;19977;-82
2022/08/25 09:56:57;;;;;;;;;;;23.40;68.80;;;22.72;62.96;96178.38;4233909;33;19902;-83
2022/08/25 09:59:27;;;;;;;;;;;23.30;68.80;;;22.71;63.54;96179.56;4235418;33;19902;-82
2022/08/25 10:01:58;;;;;;;;;;;23.30;68.90;;;22.71;63.49;96173.97;4210963;33;20129;-83
2022/08/25 10:04:27;;;;;;;;;;;23.30;68.90;;;22.70;63.25;96175.13;4234317;33;20125;-83
2022/08/25 10:06:56;;;;;;;;;;;23.30;68.90;;;22.68;63.39;96170.72;4233829;33;19902;-83
2022/08/25 10:10:39;;;;;;;;;;;23.30;68.80;;;22.68;63.28;96173.50;4210601;33;19909;-84
2022/08/25 10:14:00;;;;;;;;;;;23.30;68.80;;;22.67;63.64;96169.06;4210542;33;19902;-83
2022/08/25 10:16:31;;;;;;;;;;;23.30;68.90;;;22.66;63.77;96169.44;4254409;33;19902;-83
2022/08/25 10:19:07;;;;;;;;;;;23.30;68.90;;;22.65;63.95;96163.06;4263977;33;19902;-83
2022/08/25 10:21:37;;;;;;;;;;;23.30;69.10;;;22.64;63.50;96161.44;4262873;33;19916;-82
2022/08/25 10:24:06;;;;;;;;;;;23.30;69.00;;;22.65;63.39;96173.41;4262776;33;19981;-82
2022/08/25 10:26:44;;;;;;;;;;;23.30;68.90;;;22.63;63.56;96161.75;4262233;33;20311;-82
2022/08/25 10:29:33;;;;;;;;;;;23.30;69.00;;;22.62;63.26;96165.72;4263730;33;20160;-82
2022/08/25 10:32:05;;;;;;;;;;;23.30;68.90;;;22.61;63.30;96164.91;4238887;33;20212;-83
2022/08/25 10:34:43;;;;;;;;;;;23.20;68.80;;;22.60;63.79;96171.66;4262687;33;20229;-83
2022/08/25 10:37:19;;;;;;;;;;;23.20;68.90;;;22.59;63.38;96158.88;4238352;33;20125;-83
2022/08/25 10:39:56;;;;;;;;;;;23.20;68.80;;;22.58;63.85;96162.81;4261850;33;19902;-83
2022/08/25 10:42:33;;;;;;;;;;;23.20;68.80;;;22.58;63.55;96157.25;4263533;33;20077;-83
2022/08/25 10:48:30;;;;;;;;;;;23.20;68.70;;;22.57;63.51;96150.03;4261833;33;19909;-83
2022/08/25 10:51:03;;;;;;;;;;;23.20;68.60;;;22.57;63.17;96152.03;4262408;33;20212;-83
2022/08/25 10:53:43;;;;;;;;;;;23.20;68.70;;;22.56;63.19;96142.81;4262411;33;20140;-83
2022/08/25 10:56:16;;;;;;;;;;;23.20;68.60;;;22.55;63.06;96148.75;4262512;33;20173;-84
2022/08/25 10:59:06;;;;;;;;;;;23.20;68.60;;;22.55;63.24;96145.97;4262312;33;19909;-83
2022/08/25 11:01:45;;;;;;;;;;;23.20;68.70;;;22.55;63.45;96143.19;4238744;33;19913;-81
2022/08/25 11:04:14;;;;;;;;;;;23.20;68.60;;;22.53;63.33;96138.75;4262224;33;20122;-82
2022/08/25 11:06:49;;;;;;;;;;;23.20;68.70;;;22.53;62.90;96140.72;4238101;33;19924;-82
2022/08/25 11:09:21;;;;;;;;;;;23.20;68.50;;;22.52;62.99;96141.91;4238368;33;19901;-82
2022/08/25 11:11:53;;;;;;;;;;;23.20;68.70;;;22.53;63.06;96149.09;4262310;33;19909;-83
2022/08/25 11:14:25;;;;;;;;;;;23.10;68.60;;;22.52;63.59;96136.34;4263104;33;20235;-82
2022/08/25 11:16:57;;;;;;;;;;;23.20;68.60;;;22.51;63.38;96140.28;4237812;33;20246;-83
2022/08/25 11:19:29;;;;;;;;;;;23.10;68.50;;;22.51;63.03;96132.72;4238341;33;19902;-82
2022/08/25 11:22:04;;;;;;;;;;;23.10;68.30;;;22.49;62.79;96137.81;4238401;33;19941;-82
2022/08/25 11:24:41;;;;;;;;;;;23.10;68.50;;;22.49;63.33;96126.69;4262010;33;19909;-83
2022/08/25 11:27:14;;;;;;;;;;;23.10;68.50;;;22.48;63.33;96118.66;4237744;33;20134;-83
2022/08/25 11:29:47;;;;;;;;;;;23.10;68.60;;;22.48;63.39;96113.88;4262102;33;19909;-83
2022/08/25 11:32:18;;;;;;;;;;;23.10;68.60;;;22.48;63.18;96115.88;4262052;33;19902;-83
2022/08/25 11:34:49;;;;;;;;;;;23.10;68.80;;;22.47;63.24;96120.63;4238026;33;19909;-83
2022/08/25 11:37:24;;;;;;;;;;;23.10;68.60;;;22.47;63.28;96111.47;4262568;33;20106;-83
2022/08/25 11:40:30;;;;;;;;;;;23.10;68.70;;;22.45;63.18;96100.66;4262734;33;19902;-83
2022/08/25 11:43:06;;;;;;;;;;;23.10;68.80;;;22.45;63.53;96095.09;4261796;33;19909;-83
2022/08/25 11:45:58;;;;;;;;;;;23.10;68.90;;;22.45;63.13;96091.47;4238232;33;20145;-83
2022/08/25 11:48:41;;;;;;;;;;;23.10;68.80;;;22.46;63.50;96098.69;4261411;33;20062;-85
2022/08/25 11:51:11;;;;;;;;;;;23.10;68.90;;;22.43;63.63;96077.88;4261607;33;20331;-84
2022/08/25 11:53:45;;;;;;;;;;;23.10;68.90;;;22.45;63.15;96097.03;4262946;33;19909;-84
2022/08/25 11:56:33;;;;;;;;;;;23.10;68.80;;;22.45;63.17;96094.25;4285832;33;19925;-82
2022/08/25 11:59:01;;;;;;;;;;;23.10;68.80;;;22.45;63.02;96083.09;4237634;33;19901;-82